Ashland, Texas
Current Conditions -  °F | °C
As of 12:53 AM on Saturday 25 Oct 2014 (Local Time) from KGGG Reporting Station
Clear Clear  
Wind Chill: 61°   Ceiling: Unl
Heat Index: 61°   Visibility: 10mi
Dew Point: 56°   Wind: 0mph
Humidity: 83%   Direction: NA
Pressure: 30.12"   Gusts: NA
Location:  32.6998°N, 94.6696°W
Report Text: KGGG 250553Z AUTO 00000KT 10SM CLR 16/13 A3012 RMK AO2 SLP196 T01610133 10200 20156 402670100 50000
Loading
Personal Weather Stations






























Interactive Weather Map
Tropical Storm Tracking
New forecast layout! Learn more

10-Day Weather Forecast

Advertisements
Track Severe Weather on mobile